Time;durP1;ratioP1;P1;durP2;ratioP2;P2;SDS_P1;SDS_P2;PMS_P1;PMS_P2;Temp;Humidity;BMP_temperature;BMP_pressure;BME280_temperature;BME280_humidity;BME280_pressure;Samples;Min_cycle;Max_cycle;Signal;HPM_P1;HPM_P2
2022/04/28 00:01:52;;;;;;;6.57;5.53;;;;;;;5.09;86.51;98434.22;6203309;28;20259;-42
2022/04/28 00:04:55;;;;;;;5.53;4.67;;;;;;;5.01;86.97;98438.97;6204084;28;20248;-42
2022/04/28 00:07:58;;;;;;;6.10;4.90;;;;;;;4.95;86.89;98443.66;6204306;28;20240;-43
2022/04/28 00:11:00;;;;;;;7.37;5.13;;;;;;;4.86;86.95;98434.47;6204618;28;20236;-42
2022/04/28 00:14:03;;;;;;;6.67;4.83;;;;;;;4.81;86.56;98431.19;6204455;28;20236;-42
2022/04/28 00:17:05;;;;;;;8.17;4.87;;;;;;;4.73;87.13;98433.31;6205047;28;20240;-43
2022/04/28 00:20:08;;;;;;;6.90;5.20;;;;;;;4.67;86.98;98430.97;6204225;28;20318;-42
2022/04/28 00:23:11;;;;;;;5.87;4.87;;;;;;;4.60;87.53;98432.13;6203779;28;20224;-42
2022/04/28 00:26:13;;;;;;;5.50;4.60;;;;;;;4.53;87.05;98428.97;6203552;28;20270;-43
2022/04/28 00:29:15;;;;;;;6.53;5.30;;;;;;;4.51;87.83;98437.78;6205194;28;20232;-42
2022/04/28 00:32:18;;;;;;;6.77;5.50;;;;;;;4.45;87.42;98447.59;6203170;28;20239;-42
2022/04/28 00:35:20;;;;;;;5.50;4.93;;;;;;;4.40;87.19;98444.31;6202701;28;20228;-42
2022/04/28 00:38:23;;;;;;;5.37;4.87;;;;;;;4.36;87.15;98442.78;6202510;28;20239;-42
2022/04/28 00:41:25;;;;;;;5.60;4.30;;;;;;;4.29;88.05;98436.09;6204113;28;20572;-41
2022/04/28 00:44:28;;;;;;;7.30;4.80;;;;;;;4.23;87.62;98435.50;6202657;28;20807;-42
2022/04/28 00:50:55;;;;;;;7.10;5.33;;;;;;;4.09;87.24;98444.78;6205635;28;20232;-41
2022/04/28 00:53:59;;;;;;;5.87;4.83;;;;;;;4.06;87.49;98441.47;6204042;28;20235;-42
2022/04/28 00:57:02;;;;;;;6.57;5.00;;;;;;;4.01;88.00;98440.78;6217980;28;20235;-42
2022/04/28 01:00:06;;;;;;;8.30;5.50;;;;;;;3.94;88.16;98445.44;6204235;28;20242;-42
2022/04/28 01:03:10;;;;;;;7.87;5.17;;;;;;;3.88;87.88;98447.44;6196330;28;20300;-42
2022/04/28 01:06:13;;;;;;;6.77;4.97;;;;;;;3.86;88.29;98444.03;6201930;28;20238;-42
2022/04/28 01:09:16;;;;;;;8.37;5.23;;;;;;;3.82;87.85;98442.47;6201729;28;20247;-42
2022/04/28 01:12:20;;;;;;;7.90;5.90;;;;;;;3.78;87.85;98446.97;6209149;28;20593;-42
2022/04/28 01:15:29;;;;;;;8.50;5.40;;;;;;;3.75;88.26;98449.72;6202774;28;20228;-42
2022/04/28 01:18:32;;;;;;;9.00;5.53;;;;;;;3.70;88.15;98435.97;6201252;28;20707;-42
2022/04/28 01:21:34;;;;;;;6.00;5.40;;;;;;;3.67;88.25;98438.72;6203103;28;20610;-44
2022/04/28 01:24:45;;;;;;;6.73;5.27;;;;;;;3.62;88.43;98438.06;6202520;28;20322;-41
2022/04/28 01:27:47;;;;;;;9.30;5.80;;;;;;;3.60;88.70;98439.88;6218233;28;20245;-42
2022/04/28 01:30:50;;;;;;;9.57;5.90;;;;;;;3.58;88.42;98431.28;6201831;28;20294;-42
2022/04/28 01:33:52;;;;;;;5.87;5.20;;;;;;;3.52;89.17;98439.34;6201959;28;20264;-43
2022/04/28 01:36:55;;;;;;;8.60;5.80;;;;;;;3.46;88.94;98437.81;6206639;28;20238;-42
2022/04/28 01:39:57;;;;;;;7.33;5.23;;;;;;;3.42;89.00;98438.84;6207543;28;20245;-42
2022/04/28 01:43:00;;;;;;;6.43;5.30;;;;;;;3.38;89.34;98439.03;6206532;28;20226;-43
2022/04/28 01:46:03;;;;;;;6.83;5.13;;;;;;;3.33;89.07;98442.66;6205580;28;20718;-43
2022/04/28 01:49:44;;;;;;;6.60;5.07;;;;;;;3.30;89.43;98434.09;6204706;28;20239;-42
2022/04/28 01:56:53;;;;;;;7.27;5.47;;;;;;;3.20;89.21;98430.16;6207351;28;20226;-41
2022/04/28 02:00:18;;;;;;;7.27;5.67;;;;;;;3.21;89.00;98442.28;6236213;28;20238;-41
2022/04/28 02:03:28;;;;;;;6.77;5.80;;;;;;;3.16;89.21;98434.66;6209779;28;20241;-42
2022/04/28 02:06:33;;;;;;;8.20;5.60;;;;;;;3.13;89.19;98436.53;6230835;28;20235;-42
2022/04/28 02:09:35;;;;;;;8.47;6.30;;;;;;;3.09;89.37;98432.34;6223056;28;20258;-41
2022/04/28 02:12:40;;;;;;;7.27;5.40;;;;;;;3.07;89.50;98431.56;6206250;28;20235;-44
2022/04/28 02:16:00;;;;;;;6.63;5.40;;;;;;;3.05;89.33;98434.22;6206096;28;20227;-42
2022/04/28 02:19:22;;;;;;;8.23;6.03;;;;;;;3.04;89.63;98439.47;6189863;28;20238;-42
2022/04/28 02:22:24;;;;;;;6.50;5.83;;;;;;;3.01;89.79;98436.97;6206954;28;20279;-42
2022/04/28 02:25:28;;;;;;;7.87;5.87;;;;;;;2.99;89.69;98434.47;6206732;28;20238;-42
2022/04/28 02:28:32;;;;;;;7.57;5.93;;;;;;;2.95;89.77;98433.72;6205180;28;20234;-43
2022/04/28 02:31:34;;;;;;;11.60;6.83;;;;;;;2.91;89.91;98434.72;6225985;28;20262;-42
2022/04/28 02:34:36;;;;;;;7.17;5.73;;;;;;;2.87;89.76;98437.53;6204925;28;20607;-42
2022/04/28 02:37:39;;;;;;;6.90;5.90;;;;;;;2.83;89.96;98439.38;6206106;28;20737;-41
2022/04/28 02:40:41;;;;;;;13.77;6.30;;;;;;;2.78;89.91;98441.31;6204446;28;20241;-42
2022/04/28 02:43:43;;;;;;;8.73;6.20;;;;;;;2.79;89.87;98437.81;6205180;28;20580;-41
2022/04/28 02:46:49;;;;;;;7.73;6.00;;;;;;;2.76;90.10;98437.06;6204111;28;20271;-41
2022/04/28 02:49:56;;;;;;;6.83;6.07;;;;;;;2.72;90.09;98436.31;6206299;28;20234;-44
2022/04/28 02:52:58;;;;;;;9.20;6.07;;;;;;;2.68;90.24;98437.34;6209226;28;20236;-42
2022/04/28 02:56:03;;;;;;;9.87;6.43;;;;;;;2.65;90.25;98434.84;6206289;28;20709;-44
2022/04/28 02:59:09;;;;;;;8.77;5.80;;;;;;;2.59;90.16;98441.16;6206274;28;20228;-42
2022/04/28 03:02:11;;;;;;;7.57;5.57;;;;;;;2.55;90.18;98443.91;6205537;28;20590;-41
2022/04/28 03:05:13;;;;;;;7.87;5.83;;;;;;;2.50;90.16;98444.06;6206740;28;20320;-42
2022/04/28 03:11:37;;;;;;;7.80;5.60;;;;;;;2.45;90.33;98443.38;6237203;28;20233;-42
2022/04/28 03:14:39;;;;;;;9.77;6.53;;;;;;;2.42;90.55;98440.03;6203744;28;20212;-43
2022/04/28 03:17:41;;;;;;;9.60;6.67;;;;;;;2.39;90.15;98443.63;6205182;28;20241;-42
2022/04/28 03:20:44;;;;;;;7.13;5.87;;;;;;;2.37;90.42;98444.56;6204017;28;20233;-42
2022/04/28 03:23:47;;;;;;;9.80;6.17;;;;;;;2.36;90.37;98450.69;6214457;28;21698;-43
2022/04/28 03:26:49;;;;;;;6.50;5.73;;;;;;;2.33;90.48;98451.63;6204613;28;20716;-42
2022/04/28 03:29:53;;;;;;;8.10;6.40;;;;;;;2.29;90.50;98449.19;6205161;28;20762;-42
2022/04/28 03:32:55;;;;;;;10.07;6.30;;;;;;;2.27;90.53;98456.22;6204162;28;20326;-42
2022/04/28 03:35:58;;;;;;;8.20;5.77;;;;;;;2.25;90.36;98453.66;6205593;28;20229;-41
2022/04/28 03:39:01;;;;;;;8.53;5.87;;;;;;;2.20;90.42;98445.97;6202040;28;20240;-42
2022/04/28 03:42:04;;;;;;;7.70;6.07;;;;;;;2.16;90.34;98453.97;6204201;28;20214;-41
2022/04/28 03:45:07;;;;;;;9.70;6.90;;;;;;;2.13;90.58;98454.06;6203386;28;20329;-41
2022/04/28 03:48:15;;;;;;;7.87;6.17;;;;;;;2.14;90.68;98459.22;6204130;28;20208;-42
2022/04/28 03:51:19;;;;;;;7.87;6.33;;;;;;;2.14;90.37;98461.81;6205610;28;20670;-44
2022/04/28 03:54:21;;;;;;;12.00;6.80;;;;;;;2.13;90.42;98457.53;6220500;28;20695;-42
2022/04/28 03:57:23;;;;;;;9.63;6.40;;;;;;;2.14;90.66;98464.44;6208364;28;20217;-43
2022/04/28 04:00:26;;;;;;;9.73;6.97;;;;;;;2.14;90.77;98461.81;6202809;28;20599;-43
2022/04/28 04:03:36;;;;;;;9.07;6.70;;;;;;;2.15;90.21;98463.53;6203354;28;20248;-41
2022/04/28 04:06:38;;;;;;;9.57;6.50;;;;;;;2.17;90.40;98461.72;6202941;28;20358;-42
2022/04/28 04:10:00;;;;;;;7.13;6.27;;;;;;;2.19;90.81;98459.09;6202569;28;20263;-42
2022/04/28 04:13:11;;;;;;;7.23;6.00;;;;;;;2.19;90.51;98464.28;6204246;28;20320;-42
2022/04/28 04:16:15;;;;;;;8.93;6.57;;;;;;;2.23;90.39;98473.69;6202445;28;20237;-42
2022/04/28 04:19:37;;;;;;;7.07;6.37;;;;;;;2.28;90.65;98470.94;6182503;28;20240;-41
2022/04/28 04:22:39;;;;;;;8.17;6.00;;;;;;;2.31;90.60;98470.81;6202858;28;20267;-41
2022/04/28 04:25:41;;;;;;;9.17;6.77;;;;;;;2.33;90.51;98469.00;6202707;28;20271;-41
2022/04/28 04:28:49;;;;;;;7.87;6.33;;;;;;;2.36;90.76;98472.38;6203631;28;20240;-43
2022/04/28 04:32:17;;;;;;;8.10;5.80;;;;;;;2.42;90.53;98476.50;6205316;28;20260;-42
2022/04/28 04:35:38;;;;;;;7.90;6.10;;;;;;;2.45;90.83;98472.03;6204092;28;20271;-42
2022/04/28 04:38:40;;;;;;;8.23;6.30;;;;;;;2.52;90.69;98477.88;6193964;28;20230;-41
2022/04/28 04:41:42;;;;;;;10.93;6.93;;;;;;;2.58;90.52;98472.47;6226335;28;20350;-42
2022/04/28 04:44:45;;;;;;;10.67;7.90;;;;;;;2.69;90.55;98477.28;6201450;28;20296;-42
2022/04/28 04:47:53;;;;;;;7.87;6.70;;;;;;;2.81;90.42;98482.03;6201574;28;20453;-42
2022/04/28 04:51:12;;;;;;;8.43;6.97;;;;;;;2.87;90.57;98482.69;6203908;28;20685;-43
2022/04/28 04:54:22;;;;;;;10.30;7.77;;;;;;;2.97;90.59;98491.88;6218387;28;20290;-42
2022/04/28 04:57:26;;;;;;;8.03;7.10;;;;;;;3.11;90.71;98490.50;6227720;28;20230;-44
2022/04/28 05:00:29;;;;;;;9.67;8.17;;;;;;;3.20;90.87;98493.59;6225762;28;20702;-43
2022/04/28 05:04:00;;;;;;;11.30;8.87;;;;;;;3.29;90.91;98489.81;6224876;28;20271;-42
2022/04/28 05:07:18;;;;;;;12.37;8.03;;;;;;;3.40;91.14;98495.44;6225898;28;20237;-42
2022/04/28 05:10:22;;;;;;;13.90;9.53;;;;;;;3.54;90.88;98487.94;6229335;28;20229;-41
2022/04/28 05:13:24;;;;;;;13.03;8.67;;;;;;;3.70;91.44;98490.78;6225589;28;20245;-41
2022/04/28 05:16:29;;;;;;;13.50;9.63;;;;;;;3.87;91.64;98497.97;6219219;28;20248;-42
2022/04/28 05:19:48;;;;;;;11.70;8.93;;;;;;;4.09;91.88;98499.63;6220867;28;20718;-43
2022/04/28 05:23:13;;;;;;;13.50;9.27;;;;;;;4.27;91.61;98495.41;6233313;28;20231;-42
2022/04/28 05:26:33;;;;;;;12.67;9.60;;;;;;;4.67;92.54;98498.94;6227975;28;20342;-42
2022/04/28 05:29:38;;;;;;;13.33;9.63;;;;;;;4.98;91.68;98504.53;6210037;28;20236;-42
2022/04/28 05:32:58;;;;;;;9.50;8.40;;;;;;;5.28;90.21;98499.69;6207852;28;20234;-43
2022/04/28 05:36:21;;;;;;;8.60;7.03;;;;;;;5.65;89.83;98501.41;6208727;28;21440;-42
2022/04/28 05:39:24;;;;;;;11.47;8.90;;;;;;;5.92;88.45;98509.75;6231168;28;20602;-41
2022/04/28 05:45:41;;;;;;;11.13;8.30;;;;;;;6.25;87.17;98513.34;6230276;28;20247;-42
2022/04/28 05:45:48;;;;;;;10.10;7.90;;;;;;;6.65;84.30;98511.34;6231320;28;20394;-43
2022/04/28 05:48:50;;;;;;;9.47;7.00;;;;;;;6.96;81.66;98502.75;6231692;28;20246;-41
2022/04/28 05:51:53;;;;;;;7.70;6.47;;;;;;;7.10;81.09;98497.59;6229572;28;20227;-42
2022/04/28 05:54:58;;;;;;;6.97;6.00;;;;;;;7.21;79.93;98500.50;6218324;28;20251;-43
2022/04/28 05:58:02;;;;;;;8.90;6.83;;;;;;;7.28;80.18;98501.03;6222597;28;20240;-41
2022/04/28 06:01:06;;;;;;;9.03;5.87;;;;;;;7.47;78.69;98512.22;6205295;28;20293;-42
2022/04/28 06:04:11;;;;;;;8.77;6.33;;;;;;;7.70;76.84;98496.03;6205727;28;20248;-43
2022/04/28 06:07:16;;;;;;;10.93;6.80;;;;;;;8.05;74.82;98508.97;6205384;28;20251;-42
2022/04/28 06:10:26;;;;;;;7.97;6.50;;;;;;;8.39;72.91;98505.28;6239166;28;20591;-41
2022/04/28 06:13:32;;;;;;;7.10;6.40;;;;;;;8.52;71.97;98506.25;6206524;28;20259;-42
2022/04/28 06:16:54;;;;;;;7.50;5.73;;;;;;;8.58;72.14;98511.19;6206455;28;20239;-42
2022/04/28 06:19:59;;;;;;;8.57;6.03;;;;;;;8.59;71.42;98515.47;6203735;28;20678;-42
2022/04/28 06:23:39;;;;;;;6.80;6.10;;;;;;;8.67;70.13;98517.69;6224994;28;20703;-42
2022/04/28 06:26:42;;;;;;;7.63;5.90;;;;;;;8.75;70.10;98518.91;6204792;28;20707;-41
2022/04/28 06:29:44;;;;;;;8.90;5.50;;;;;;;8.84;70.47;98523.63;6207282;28;20240;-42
2022/04/28 06:32:46;;;;;;;8.23;6.00;;;;;;;8.95;70.48;98527.41;6205728;28;20231;-41
2022/04/28 06:35:59;;;;;;;7.47;5.73;;;;;;;9.06;70.88;98524.97;6227488;28;20278;-42
2022/04/28 06:39:08;;;;;;;6.97;5.80;;;;;;;9.28;70.05;98524.53;6229796;28;20722;-42
2022/04/28 06:42:10;;;;;;;6.97;5.90;;;;;;;9.42;68.39;98527.97;6228931;28;20315;-42
2022/04/28 06:46:11;;;;;;;7.77;6.37;;;;;;;9.57;65.09;98536.72;6222268;28;20266;-41
2022/04/28 06:49:33;;;;;;;6.23;5.13;;;;;;;9.69;67.08;98535.09;6229914;28;20329;-42
2022/04/28 06:52:53;;;;;;;6.70;5.10;;;;;;;9.91;65.62;98533.63;6228642;28;20235;-42
2022/04/28 06:56:07;;;;;;;5.87;4.60;;;;;;;10.44;65.96;98529.34;6221360;28;20231;-41
2022/04/28 06:59:25;;;;;;;6.67;5.77;;;;;;;10.62;63.91;98522.84;6208999;28;20791;-42
2022/04/28 07:02:28;;;;;;;7.27;4.97;;;;;;;10.70;62.86;98519.66;6203589;28;20256;-42
2022/04/28 07:05:38;;;;;;;6.03;5.17;;;;;;;10.67;63.06;98526.03;6206440;28;20249;-42
2022/04/28 07:08:43;;;;;;;8.67;5.37;;;;;;;10.92;61.47;98519.91;6205081;28;20602;-43
2022/04/28 07:11:46;;;;;;;5.77;5.17;;;;;;;11.25;60.65;98511.47;6202734;28;20575;-43
2022/04/28 07:15:14;;;;;;;6.10;5.13;;;;;;;11.55;59.77;98524.31;6235871;28;20216;-44
2022/04/28 07:18:46;;;;;;;6.93;5.63;;;;;;;11.64;58.79;98526.31;6212560;28;20228;-42
2022/04/28 07:21:48;;;;;;;6.63;5.00;;;;;;;11.86;57.90;98524.81;6229015;28;20246;-44
2022/04/28 07:24:50;;;;;;;7.30;5.17;;;;;;;12.21;56.87;98523.09;6221389;28;20370;-43
2022/04/28 07:27:53;;;;;;;6.73;5.27;;;;;;;12.61;56.05;98528.06;6204418;28;20232;-44
2022/04/28 07:31:14;;;;;;;6.10;4.40;;;;;;;12.90;55.98;98526.72;6204235;28;20685;-43
2022/04/28 07:34:36;;;;;;;5.97;4.57;;;;;;;13.42;54.04;98526.22;6209577;28;20243;-44
2022/04/28 07:38:06;;;;;;;6.80;5.10;;;;;;;13.62;53.26;98527.31;6211026;28;20241;-42
2022/04/28 07:41:08;;;;;;;6.03;4.97;;;;;;;13.86;51.58;98522.72;6205027;28;20242;-42
2022/04/28 07:44:12;;;;;;;5.83;5.03;;;;;;;14.12;52.25;98525.06;6203748;28;20287;-43
2022/04/28 07:47:17;;;;;;;6.33;4.43;;;;;;;14.48;50.37;98530.03;6204387;28;20235;-41
2022/04/28 07:50:31;;;;;;;5.80;5.20;;;;;;;14.88;49.96;98532.88;6202404;28;20239;-41
2022/04/28 07:53:42;;;;;;;5.30;4.63;;;;;;;14.86;48.64;98537.50;6203323;28;20217;-41
2022/04/28 07:56:47;;;;;;;6.37;4.67;;;;;;;15.23;48.23;98529.88;6203568;28;20228;-42
2022/04/28 07:59:50;;;;;;;4.97;4.27;;;;;;;15.60;47.48;98535.56;6187079;28;20236;-43
2022/04/28 08:02:54;;;;;;;5.23;4.30;;;;;;;15.70;48.40;98536.44;6202776;28;20236;-41
2022/04/28 08:06:07;;;;;;;6.03;4.20;;;;;;;15.85;46.96;98539.59;6194354;28;20244;-43
2022/04/28 08:09:09;;;;;;;4.40;4.00;;;;;;;15.77;48.03;98539.44;6221516;28;20706;-42
2022/04/28 08:12:14;;;;;;;7.27;4.20;;;;;;;15.74;46.88;98548.50;6202063;28;20208;-43
2022/04/28 08:15:44;;;;;;;6.73;4.33;;;;;;;15.96;46.60;98554.63;6202351;28;20224;-42
2022/04/28 08:18:47;;;;;;;5.67;4.63;;;;;;;16.04;47.29;98550.28;6201534;28;20256;-41
2022/04/28 08:21:56;;;;;;;6.23;4.67;;;;;;;16.19;47.99;98551.56;6202481;28;20237;-43
2022/04/28 08:24:58;;;;;;;5.27;4.77;;;;;;;15.78;45.64;98559.72;6202493;28;20251;-42
2022/04/28 08:28:00;;;;;;;5.17;4.60;;;;;;;16.26;45.45;98553.72;6201486;28;20306;-42
2022/04/28 08:31:02;;;;;;;5.97;4.87;;;;;;;16.53;44.31;98559.22;6202523;28;20294;-43
2022/04/28 08:34:05;;;;;;;6.17;4.80;;;;;;;16.55;44.55;98565.25;6202012;28;20240;-42
2022/04/28 08:37:08;;;;;;;4.83;4.30;;;;;;;16.55;45.94;98563.44;6203680;28;20255;-43
2022/04/28 08:40:12;;;;;;;4.80;4.27;;;;;;;16.76;44.22;98563.34;6208169;28;20287;-43
2022/04/28 08:43:16;;;;;;;5.80;4.30;;;;;;;16.81;44.46;98562.88;6201173;28;20240;-43
2022/04/28 08:49:49;;;;;;;6.50;5.40;;;;;;;17.24;42.56;98568.63;6203646;28;20371;-42
2022/04/28 08:53:14;;;;;;;6.43;5.80;;;;;;;16.96;42.84;98564.16;6211266;28;20606;-43
2022/04/28 08:56:20;;;;;;;5.47;4.87;;;;;;;17.57;43.09;98561.91;6202028;28;20232;-41
2022/04/28 08:59:24;;;;;;;7.37;6.03;;;;;;;17.25;41.91;98567.63;6200939;28;20220;-42
2022/04/28 09:02:33;;;;;;;6.40;5.80;;;;;;;17.22;41.98;98556.41;6202561;28;20708;-41
2022/04/28 09:05:51;;;;;;;6.60;5.90;;;;;;;17.39;42.04;98562.81;6218087;28;20283;-41
2022/04/28 09:09:16;;;;;;;6.80;5.73;;;;;;;17.67;41.23;98565.41;6203572;28;20576;-43
2022/04/28 09:16:50;;;;;;;6.67;5.70;;;;;;;16.82;41.52;98559.25;6175246;28;20229;-40
2022/04/28 09:20:00;;;;;;;6.60;6.00;;;;;;;16.11;43.82;98572.72;6177301;28;20264;-43
2022/04/28 09:23:13;;;;;;;7.53;6.17;;;;;;;16.00;43.58;98574.66;6176808;28;20357;-41
2022/04/28 09:26:24;;;;;;;7.57;6.37;;;;;;;16.06;44.20;98579.44;6176523;28;20237;-42
2022/04/28 09:29:36;;;;;;;7.27;6.17;;;;;;;16.13;44.07;98570.78;6180233;28;20240;-42
2022/04/28 09:32:40;;;;;;;6.80;5.77;;;;;;;16.14;44.36;98572.47;6179534;28;20724;-42
2022/04/28 09:36:10;;;;;;;6.73;5.17;;;;;;;16.27;44.55;98571.38;6178507;28;20252;-41
2022/04/28 09:42:46;;;;;;;5.93;5.33;;;;;;;17.41;43.18;98569.69;6202839;28;20243;-42
2022/04/28 09:45:58;;;;;;;7.53;6.70;;;;;;;18.18;39.09;98561.38;6202907;28;20240;-42
2022/04/28 09:49:01;;;;;;;7.03;6.00;;;;;;;18.99;41.05;98559.56;6200718;28;20830;-43
2022/04/28 09:52:13;;;;;;;8.77;5.87;;;;;;;20.08;39.89;98562.59;6201081;28;20232;-43
2022/04/28 09:55:37;;;;;;;5.60;4.77;;;;;;;20.44;38.06;98558.75;6184641;28;20236;-44
2022/04/28 09:59:06;;;;;;;6.27;5.67;;;;;;;21.19;36.39;98570.25;6205445;28;20232;-46
2022/04/28 10:02:13;;;;;;;6.33;5.73;;;;;;;21.03;36.40;98575.59;6206998;28;20251;-42
2022/04/28 10:05:16;;;;;;;6.83;6.00;;;;;;;20.93;35.45;98561.50;6205340;28;20244;-43
2022/04/28 10:08:27;;;;;;;6.67;6.07;;;;;;;21.13;36.30;98570.06;6204997;28;20248;-42
2022/04/28 10:11:39;;;;;;;7.57;6.77;;;;;;;21.12;34.91;98574.59;6203443;28;20228;-42
2022/04/28 10:14:43;;;;;;;8.43;6.40;;;;;;;20.70;36.14;98576.56;6202310;28;20248;-41
2022/04/28 10:17:54;;;;;;;5.33;4.80;;;;;;;20.10;37.25;98569.50;6204048;28;20737;-43
2022/04/28 10:21:02;;;;;;;5.57;4.93;;;;;;;19.54;38.87;98559.34;6183684;28;20648;-44
2022/04/28 10:34:21;;;;;;;7.43;5.67;;;;;;;18.62;41.24;98567.75;6180906;28;20229;-43
2022/04/28 10:37:47;;;;;;;9.70;6.43;;;;;;;18.21;39.29;98558.44;6179979;28;20236;-42
2022/04/28 10:41:09;;;;;;;7.00;6.30;;;;;;;17.87;40.13;98566.19;6181652;28;20225;-42
2022/04/28 10:44:18;;;;;;;5.83;5.23;;;;;;;17.85;41.12;98554.84;6195272;28;20578;-43
2022/04/28 10:47:37;;;;;;;8.40;4.87;;;;;;;19.72;39.41;98544.03;6180672;28;20291;-42
2022/04/28 10:50:39;;;;;;;6.70;4.67;;;;;;;20.31;37.57;98544.09;6180970;28;20697;-44
2022/04/28 10:54:04;;;;;;;6.67;4.60;;;;;;;20.02;35.92;98555.22;6181896;28;20239;-44
2022/04/28 10:57:06;;;;;;;5.30;4.80;;;;;;;19.39;36.72;98556.34;6204593;28;20253;-42
2022/04/28 11:00:11;;;;;;;6.57;5.17;;;;;;;20.35;35.57;98549.03;6180988;28;20250;-42
2022/04/28 11:03:15;;;;;;;4.80;4.40;;;;;;;20.30;34.12;98553.97;6181904;28;20221;-43
2022/04/28 11:06:20;;;;;;;4.87;4.47;;;;;;;21.03;33.71;98553.28;6179569;28;20226;-41
2022/04/28 11:09:36;;;;;;;5.33;4.63;;;;;;;20.92;32.07;98544.56;6180947;28;20679;-44
2022/04/28 11:12:43;;;;;;;5.33;4.83;;;;;;;20.71;32.63;98546.06;6181675;28;20232;-48
2022/04/28 11:15:47;;;;;;;4.97;4.30;;;;;;;21.17;32.69;98558.81;6181383;28;20240;-48
2022/04/28 11:18:49;;;;;;;6.03;5.43;;;;;;;21.23;31.36;98543.91;6181004;28;20323;-48
2022/04/28 11:21:52;;;;;;;5.47;4.97;;;;;;;19.49;32.33;98549.09;6181377;28;20334;-50
2022/04/28 11:24:56;;;;;;;5.80;4.90;;;;;;;18.94;34.36;98545.81;6188268;28;20244;-46
2022/04/28 11:28:09;;;;;;;4.63;4.13;;;;;;;19.12;34.42;98552.00;6179010;28;20245;-49
2022/04/28 11:31:18;;;;;;;6.80;4.40;;;;;;;19.34;34.87;98552.47;6179146;28;20237;-46
2022/04/28 11:34:22;;;;;;;5.67;4.00;;;;;;;19.71;33.93;98545.03;6179591;28;20229;-45
2022/04/28 11:37:27;;;;;;;5.20;3.90;;;;;;;20.64;32.02;98543.22;6181797;28;20240;-50
2022/04/28 11:40:35;;;;;;;3.50;3.20;;;;;;;20.31;31.44;98541.41;6180777;28;20232;-46
2022/04/28 11:43:37;;;;;;;6.40;3.73;;;;;;;19.72;29.91;98551.22;6181406;28;20236;-49
2022/04/28 11:46:45;;;;;;;4.27;3.53;;;;;;;19.60;30.02;98541.78;6178670;28;20315;-47
2022/04/28 11:49:49;;;;;;;5.43;3.17;;;;;;;19.90;30.72;98536.75;6180377;28;20264;-47
2022/04/28 11:53:06;;;;;;;3.87;3.47;;;;;;;20.86;29.20;98533.69;6182850;28;20671;-49
2022/04/28 11:56:23;;;;;;;4.57;3.73;;;;;;;20.78;30.12;98528.28;6190904;28;20368;-50
2022/04/28 11:59:35;;;;;;;4.07;3.67;;;;;;;19.97;29.11;98533.41;6180214;28;20566;-49
2022/04/28 12:02:41;;;;;;;4.23;3.83;;;;;;;19.43;29.73;98533.63;6179020;28;20341;-47
2022/04/28 12:05:43;;;;;;;3.93;3.30;;;;;;;19.29;30.86;98536.03;6180053;28;20252;-48
2022/04/28 12:08:54;;;;;;;6.03;3.67;;;;;;;19.69;30.66;98522.91;6179170;28;20309;-48
2022/04/28 12:15:17;;;;;;;5.07;4.20;;;;;;;21.39;29.40;98521.56;6181046;28;20666;-51
2022/04/28 12:21:45;;;;;;;6.10;4.07;;;;;;;22.26;29.05;98531.38;6180086;28;20733;-46
2022/04/28 12:24:49;;;;;;;5.00;4.27;;;;;;;22.45;29.80;98521.00;6200978;28;20723;-47
2022/04/28 12:27:53;;;;;;;3.87;3.20;;;;;;;23.60;29.63;98510.97;6197746;28;20248;-46
2022/04/28 12:30:55;;;;;;;5.37;4.63;;;;;;;23.09;26.61;98518.03;6179520;28;20233;-46
2022/04/28 12:34:19;;;;;;;4.57;4.17;;;;;;;21.67;28.60;98522.84;6180147;28;20263;-46
2022/04/28 12:37:26;;;;;;;4.53;3.30;;;;;;;20.89;29.83;98518.06;6179116;28;20244;-47
2022/04/28 12:40:40;;;;;;;4.87;3.70;;;;;;;21.38;31.27;98509.97;6179546;28;20240;-47
2022/04/28 12:43:49;;;;;;;4.40;3.67;;;;;;;21.05;27.91;98519.06;6179961;28;20739;-48
2022/04/28 12:46:55;;;;;;;4.37;3.97;;;;;;;20.97;29.26;98511.84;6179090;28;20240;-47
2022/04/28 12:49:58;;;;;;;4.07;3.50;;;;;;;20.62;30.90;98524.59;6179479;28;20236;-46
2022/04/28 12:53:02;;;;;;;3.40;3.10;;;;;;;20.46;31.11;98515.69;6178802;28;20229;-50
2022/04/28 12:56:07;;;;;;;4.90;3.53;;;;;;;20.38;29.67;98529.06;6155437;28;20761;-50
2022/04/28 12:59:13;;;;;;;4.43;3.53;;;;;;;19.82;29.98;98522.50;6175336;28;20605;-48
2022/04/28 13:02:28;;;;;;;4.87;2.90;;;;;;;19.69;31.19;98517.56;6179591;28;20553;-49
2022/04/28 13:05:31;;;;;;;5.47;2.90;;;;;;;20.30;30.09;98511.09;6179704;28;20316;-49
2022/04/28 13:08:36;;;;;;;5.30;3.00;;;;;;;20.25;32.08;98506.22;6178197;28;20291;-50
2022/04/28 13:11:41;;;;;;;4.47;3.17;;;;;;;20.22;29.22;98505.72;6180224;28;20233;-51
2022/04/28 13:14:43;;;;;;;4.43;3.43;;;;;;;20.24;29.09;98499.19;6180290;28;20279;-49
2022/04/28 13:17:45;;;;;;;3.20;2.90;;;;;;;20.12;27.56;98511.22;6178060;28;20236;-50
2022/04/28 13:20:48;;;;;;;2.90;2.70;;;;;;;19.81;29.72;98510.09;6179299;28;20256;-47
2022/04/28 13:23:51;;;;;;;3.00;2.80;;;;;;;19.76;28.89;98501.72;6179213;28;20241;-47
2022/04/28 13:26:53;;;;;;;2.53;2.33;;;;;;;20.27;28.93;98501.53;6178980;28;20240;-45
2022/04/28 13:30:01;;;;;;;2.73;2.37;;;;;;;20.59;28.10;98500.78;6178199;28;20260;-46
2022/04/28 13:33:03;;;;;;;3.30;2.57;;;;;;;20.32;27.60;98498.38;6206874;28;20375;-48
2022/04/28 13:36:13;;;;;;;3.37;2.00;;;;;;;19.93;28.75;98495.41;6205862;28;20572;-49
2022/04/28 13:39:15;;;;;;;4.03;2.30;;;;;;;20.01;29.64;98498.09;6207756;28;20711;-48
2022/04/28 13:42:17;;;;;;;2.73;2.47;;;;;;;21.11;26.12;98497.75;6208499;28;20255;-48
2022/04/28 13:45:19;;;;;;;2.80;2.30;;;;;;;20.83;27.38;98499.13;6207239;28;20220;-49
2022/04/28 13:48:21;;;;;;;3.10;2.27;;;;;;;20.06;27.30;98497.63;6206487;28;20256;-50
2022/04/28 13:51:23;;;;;;;3.67;2.60;;;;;;;18.94;27.80;98500.34;6206814;28;20224;-50
2022/04/28 13:54:26;;;;;;;3.07;2.57;;;;;;;18.33;28.94;98505.63;6193817;28;20263;-52
2022/04/28 13:57:28;;;;;;;4.40;2.07;;;;;;;18.30;29.84;98505.91;6203323;28;20723;-50
2022/04/28 14:00:30;;;;;;;2.43;2.10;;;;;;;18.06;30.14;98504.69;6182386;28;20236;-46
2022/04/28 14:03:34;;;;;;;2.70;2.23;;;;;;;17.70;31.18;98506.41;6182642;28;20229;-47
2022/04/28 14:06:36;;;;;;;4.80;2.40;;;;;;;17.36;31.68;98509.75;6182259;28;20224;-47
2022/04/28 14:09:38;;;;;;;2.73;2.40;;;;;;;17.31;31.75;98502.16;6183077;28;20233;-49
2022/04/28 14:12:41;;;;;;;2.80;2.43;;;;;;;17.24;32.09;98503.75;6182539;28;20233;-49
2022/04/28 14:15:44;;;;;;;3.77;2.30;;;;;;;18.89;30.15;98494.59;6183097;28;20244;-48
2022/04/28 14:18:46;;;;;;;5.10;2.50;;;;;;;22.21;25.37;98491.56;6182649;28;20678;-49
2022/04/28 14:21:48;;;;;;;4.27;2.30;;;;;;;20.42;26.01;98483.00;6182226;28;20229;-49
2022/04/28 14:24:50;;;;;;;2.30;2.00;;;;;;;19.62;28.65;98479.03;6183618;28;20233;-47
2022/04/28 14:27:53;;;;;;;2.67;2.13;;;;;;;18.93;30.36;98492.47;6181920;28;20728;-51
2022/04/28 14:30:55;;;;;;;2.20;2.00;;;;;;;18.43;31.18;98499.22;6181776;28;20716;-47
2022/04/28 14:34:21;;;;;;;2.50;2.30;;;;;;;18.00;31.89;98496.41;6182006;28;20287;-49
2022/04/28 14:37:37;;;;;;;3.30;2.90;;;;;;;17.21;32.13;98504.03;6181992;28;20606;-46
2022/04/28 14:40:39;;;;;;;4.40;2.53;;;;;;;17.14;33.54;98503.78;6181220;28;20705;-46
2022/04/28 14:43:42;;;;;;;3.30;2.17;;;;;;;17.11;33.89;98503.19;6181053;28;20247;-46
2022/04/28 14:46:44;;;;;;;2.30;2.10;;;;;;;17.30;32.43;98501.31;6181842;28;20720;-47
2022/04/28 14:53:07;;;;;;;2.53;2.33;;;;;;;18.72;30.65;98500.81;6186547;28;20371;-47
2022/04/28 14:56:09;;;;;;;2.63;2.07;;;;;;;19.88;29.20;98487.00;6187018;28;20323;-48
2022/04/28 14:59:12;;;;;;;2.27;2.07;;;;;;;19.36;29.68;98494.28;6179273;28;20236;-49
2022/04/28 15:02:15;;;;;;;2.00;1.80;;;;;;;18.99;31.95;98494.50;6181148;28;20221;-47
2022/04/28 15:05:18;;;;;;;2.40;2.20;;;;;;;19.17;30.47;98496.16;6181448;28;20240;-49
2022/04/28 15:08:20;;;;;;;3.10;2.50;;;;;;;19.09;29.71;98485.38;6181130;28;20228;-52
2022/04/28 15:11:23;;;;;;;2.40;1.97;;;;;;;18.99;30.03;98500.72;6181285;28;20228;-48
2022/04/28 15:14:25;;;;;;;2.37;2.10;;;;;;;19.84;28.90;98491.03;6180494;28;20307;-49
2022/04/28 15:17:31;;;;;;;4.80;2.10;;;;;;;21.27;27.54;98481.63;6181575;28;20229;-50
2022/04/28 15:20:34;;;;;;;3.80;1.70;;;;;;;21.50;26.10;98487.13;6180867;28;20316;-48
2022/04/28 15:23:36;;;;;;;2.33;1.87;;;;;;;19.96;26.71;98495.09;6192081;28;20228;-49
2022/04/28 15:26:38;;;;;;;1.77;1.67;;;;;;;18.58;29.42;98499.53;6193343;28;20229;-49
2022/04/28 15:29:40;;;;;;;2.47;1.97;;;;;;;17.72;31.14;98497.41;6180590;28;20237;-49